Terminal Aerodrome Forecast
Issued by NWS

Current Version | Previous Version | Graphics & Text | Print | Product List | Glossary On
Versions: 1 2 3 4 5 6 7 8 9 10 11 12 13 14 15
308
FTUS41 KILN 210523
TAFLUK
TAF
KLUK 210523Z 2106/2206 00000KT 1/4SM FG VV002
     FM211330 00000KT 2SM BR BKN005
     FM211400 VRB03KT P6SM SCT250
     FM211500 16004KT P6SM SCT040 BKN250
     FM212300 VRB04KT P6SM SCT250
     FM220400 00000KT 3SM BR SKC=

USA.gov is the U.S. government's official web portal to all federal, state and local government web resources and services.